sensor_id;sensor_type;location;lat;lon;timestamp;P1;durP1;ratioP1;P2;durP2;ratioP2
76617;SDS011;65509;42.816;74.648;2024-03-08T00:01:47;33.42;;;5.97;;
76617;SDS011;65509;42.816;74.648;2024-03-08T00:04:12;50.10;;;6.55;;
76617;SDS011;65509;42.816;74.648;2024-03-08T00:06:38;30.52;;;6.03;;
76617;SDS011;65509;42.816;74.648;2024-03-08T00:09:04;54.90;;;6.70;;
76617;SDS011;65509;42.816;74.648;2024-03-08T00:11:33;31.15;;;6.18;;
76617;SDS011;65509;42.816;74.648;2024-03-08T00:13:58;44.38;;;5.82;;
76617;SDS011;65509;42.816;74.648;2024-03-08T00:16:23;36.65;;;5.80;;
76617;SDS011;65509;42.816;74.648;2024-03-08T00:18:49;30.35;;;6.00;;
76617;SDS011;65509;42.816;74.648;2024-03-08T00:21:14;36.45;;;6.30;;
76617;SDS011;65509;42.816;74.648;2024-03-08T00:23:40;37.60;;;5.55;;
76617;SDS011;65509;42.816;74.648;2024-03-08T00:26:06;50.90;;;6.95;;
76617;SDS011;65509;42.816;74.648;2024-03-08T00:28:31;45.72;;;6.32;;
76617;SDS011;65509;42.816;74.648;2024-03-08T00:30:57;59.97;;;7.32;;
76617;SDS011;65509;42.816;74.648;2024-03-08T00:33:22;28.85;;;5.75;;
76617;SDS011;65509;42.816;74.648;2024-03-08T00:35:47;33.63;;;6.07;;
76617;SDS011;65509;42.816;74.648;2024-03-08T00:38:13;27.50;;;5.85;;
76617;SDS011;65509;42.816;74.648;2024-03-08T00:40:38;40.45;;;5.72;;
76617;SDS011;65509;42.816;74.648;2024-03-08T00:43:05;43.13;;;6.55;;
76617;SDS011;65509;42.816;74.648;2024-03-08T00:45:31;29.20;;;6.40;;
76617;SDS011;65509;42.816;74.648;2024-03-08T00:47:56;47.58;;;7.10;;
76617;SDS011;65509;42.816;74.648;2024-03-08T00:50:22;35.25;;;6.90;;
76617;SDS011;65509;42.816;74.648;2024-03-08T00:52:47;39.78;;;7.03;;
76617;SDS011;65509;42.816;74.648;2024-03-08T00:55:13;34.85;;;6.70;;
76617;SDS011;65509;42.816;74.648;2024-03-08T00:57:38;40.30;;;6.85;;
76617;SDS011;65509;42.816;74.648;2024-03-08T01:00:07;59.65;;;6.82;;
76617;SDS011;65509;42.816;74.648;2024-03-08T01:02:35;31.38;;;6.57;;
76617;SDS011;65509;42.816;74.648;2024-03-08T01:05:01;61.67;;;7.63;;
76617;SDS011;65509;42.816;74.648;2024-03-08T01:07:26;37.85;;;5.78;;
76617;SDS011;65509;42.816;74.648;2024-03-08T01:09:52;34.33;;;5.85;;
76617;SDS011;65509;42.816;74.648;2024-03-08T01:12:17;25.15;;;5.63;;
76617;SDS011;65509;42.816;74.648;2024-03-08T01:14:42;27.00;;;6.15;;
76617;SDS011;65509;42.816;74.648;2024-03-08T01:17:08;47.67;;;6.47;;
76617;SDS011;65509;42.816;74.648;2024-03-08T01:19:34;34.60;;;6.22;;
76617;SDS011;65509;42.816;74.648;2024-03-08T01:22:00;57.08;;;7.35;;
76617;SDS011;65509;42.816;74.648;2024-03-08T01:24:25;42.25;;;6.20;;
76617;SDS011;65509;42.816;74.648;2024-03-08T01:26:51;38.35;;;5.75;;
76617;SDS011;65509;42.816;74.648;2024-03-08T01:29:16;38.80;;;6.10;;
76617;SDS011;65509;42.816;74.648;2024-03-08T01:31:42;31.73;;;5.90;;
76617;SDS011;65509;42.816;74.648;2024-03-08T01:34:07;51.08;;;7.00;;
76617;SDS011;65509;42.816;74.648;2024-03-08T01:36:33;37.05;;;6.30;;
76617;SDS011;65509;42.816;74.648;2024-03-08T01:38:58;43.17;;;6.63;;
76617;SDS011;65509;42.816;74.648;2024-03-08T01:41:24;33.75;;;5.85;;
76617;SDS011;65509;42.816;74.648;2024-03-08T01:43:49;43.95;;;6.45;;
76617;SDS011;65509;42.816;74.648;2024-03-08T01:46:17;50.22;;;6.40;;
76617;SDS011;65509;42.816;74.648;2024-03-08T01:48:42;27.67;;;6.13;;
76617;SDS011;65509;42.816;74.648;2024-03-08T01:51:08;64.40;;;6.70;;
76617;SDS011;65509;42.816;74.648;2024-03-08T01:53:34;26.30;;;6.03;;
76617;SDS011;65509;42.816;74.648;2024-03-08T01:56:00;49.28;;;6.88;;
76617;SDS011;65509;42.816;74.648;2024-03-08T01:58:27;47.30;;;6.85;;
76617;SDS011;65509;42.816;74.648;2024-03-08T02:00:53;29.55;;;6.22;;
76617;SDS011;65509;42.816;74.648;2024-03-08T02:03:19;36.03;;;6.00;;
76617;SDS011;65509;42.816;74.648;2024-03-08T02:05:46;44.63;;;7.15;;
76617;SDS011;65509;42.816;74.648;2024-03-08T02:08:11;58.13;;;7.38;;
76617;SDS011;65509;42.816;74.648;2024-03-08T02:10:41;35.22;;;6.70;;
76617;SDS011;65509;42.816;74.648;2024-03-08T02:13:07;54.30;;;8.30;;
76617;SDS011;65509;42.816;74.648;2024-03-08T02:18:16;37.67;;;10.98;;
76617;SDS011;65509;42.816;74.648;2024-03-08T02:20:42;35.33;;;10.38;;
76617;SDS011;65509;42.816;74.648;2024-03-08T02:23:08;60.38;;;10.30;;
76617;SDS011;65509;42.816;74.648;2024-03-08T02:25:34;36.47;;;9.73;;
76617;SDS011;65509;42.816;74.648;2024-03-08T02:27:59;35.95;;;8.45;;
76617;SDS011;65509;42.816;74.648;2024-03-08T02:30:25;33.30;;;7.63;;
76617;SDS011;65509;42.816;74.648;2024-03-08T02:32:55;48.63;;;8.07;;
76617;SDS011;65509;42.816;74.648;2024-03-08T02:35:23;41.47;;;7.97;;
76617;SDS011;65509;42.816;74.648;2024-03-08T02:37:49;43.97;;;7.57;;
76617;SDS011;65509;42.816;74.648;2024-03-08T02:40:14;45.42;;;7.85;;
76617;SDS011;65509;42.816;74.648;2024-03-08T02:42:40;25.40;;;7.38;;
76617;SDS011;65509;42.816;74.648;2024-03-08T02:45:05;56.45;;;7.80;;
76617;SDS011;65509;42.816;74.648;2024-03-08T02:47:31;39.17;;;7.45;;
76617;SDS011;65509;42.816;74.648;2024-03-08T02:49:56;34.85;;;7.57;;
76617;SDS011;65509;42.816;74.648;2024-03-08T02:52:22;34.97;;;7.22;;
76617;SDS011;65509;42.816;74.648;2024-03-08T02:54:47;31.05;;;7.00;;
76617;SDS011;65509;42.816;74.648;2024-03-08T02:57:13;51.13;;;7.68;;
76617;SDS011;65509;42.816;74.648;2024-03-08T02:59:41;29.50;;;6.35;;
76617;SDS011;65509;42.816;74.648;2024-03-08T03:02:07;57.17;;;8.02;;
76617;SDS011;65509;42.816;74.648;2024-03-08T03:04:32;39.55;;;6.97;;
76617;SDS011;65509;42.816;74.648;2024-03-08T03:07:00;41.08;;;8.95;;
76617;SDS011;65509;42.816;74.648;2024-03-08T03:09:28;27.95;;;8.35;;
76617;SDS011;65509;42.816;74.648;2024-03-08T03:11:54;32.13;;;8.60;;
76617;SDS011;65509;42.816;74.648;2024-03-08T03:14:23;39.28;;;9.85;;
76617;SDS011;65509;42.816;74.648;2024-03-08T03:16:48;50.13;;;11.98;;
76617;SDS011;65509;42.816;74.648;2024-03-08T03:19:15;71.70;;;12.85;;
76617;SDS011;65509;42.816;74.648;2024-03-08T03:21:40;45.42;;;13.95;;
76617;SDS011;65509;42.816;74.648;2024-03-08T03:24:08;73.65;;;14.55;;
76617;SDS011;65509;42.816;74.648;2024-03-08T03:26:37;48.03;;;12.50;;
76617;SDS011;65509;42.816;74.648;2024-03-08T03:29:06;55.65;;;13.57;;
76617;SDS011;65509;42.816;74.648;2024-03-08T03:31:31;44.10;;;13.50;;
76617;SDS011;65509;42.816;74.648;2024-03-08T03:33:57;53.10;;;16.42;;
76617;SDS011;65509;42.816;74.648;2024-03-08T03:36:30;49.38;;;17.05;;
76617;SDS011;65509;42.816;74.648;2024-03-08T03:38:56;65.97;;;15.40;;
76617;SDS011;65509;42.816;74.648;2024-03-08T03:41:41;40.88;;;16.13;;
76617;SDS011;65509;42.816;74.648;2024-03-08T03:44:06;74.25;;;12.82;;
76617;SDS011;65509;42.816;74.648;2024-03-08T03:46:32;53.15;;;11.45;;
76617;SDS011;65509;42.816;74.648;2024-03-08T03:48:58;47.15;;;10.63;;
76617;SDS011;65509;42.816;74.648;2024-03-08T03:51:23;42.25;;;9.05;;
76617;SDS011;65509;42.816;74.648;2024-03-08T03:53:52;45.75;;;9.30;;
76617;SDS011;65509;42.816;74.648;2024-03-08T03:56:19;57.33;;;8.07;;
76617;SDS011;65509;42.816;74.648;2024-03-08T03:58:44;38.13;;;9.95;;
76617;SDS011;65509;42.816;74.648;2024-03-08T04:01:12;81.28;;;11.55;;
76617;SDS011;65509;42.816;74.648;2024-03-08T04:03:40;41.75;;;9.65;;
76617;SDS011;65509;42.816;74.648;2024-03-08T04:06:08;54.13;;;10.85;;
76617;SDS011;65509;42.816;74.648;2024-03-08T04:08:33;39.53;;;9.23;;
76617;SDS011;65509;42.816;74.648;2024-03-08T04:11:00;36.50;;;8.73;;
76617;SDS011;65509;42.816;74.648;2024-03-08T04:13:25;45.88;;;8.82;;
76617;SDS011;65509;42.816;74.648;2024-03-08T04:15:51;42.50;;;7.45;;
76617;SDS011;65509;42.816;74.648;2024-03-08T04:18:19;60.95;;;7.80;;
76617;SDS011;65509;42.816;74.648;2024-03-08T04:20:44;34.90;;;7.22;;
76617;SDS011;65509;42.816;74.648;2024-03-08T04:23:10;60.80;;;10.13;;
76617;SDS011;65509;42.816;74.648;2024-03-08T04:25:36;42.25;;;8.95;;
76617;SDS011;65509;42.816;74.648;2024-03-08T04:28:01;30.70;;;7.75;;
76617;SDS011;65509;42.816;74.648;2024-03-08T04:30:27;38.35;;;8.02;;
76617;SDS011;65509;42.816;74.648;2024-03-08T04:33:05;39.47;;;7.97;;
76617;SDS011;65509;42.816;74.648;2024-03-08T04:35:32;47.67;;;9.13;;
76617;SDS011;65509;42.816;74.648;2024-03-08T04:37:57;52.33;;;10.90;;
76617;SDS011;65509;42.816;74.648;2024-03-08T04:40:23;65.22;;;11.57;;
76617;SDS011;65509;42.816;74.648;2024-03-08T04:42:48;50.17;;;9.38;;
76617;SDS011;65509;42.816;74.648;2024-03-08T04:45:23;48.45;;;8.73;;
76617;SDS011;65509;42.816;74.648;2024-03-08T04:47:51;30.27;;;7.07;;
76617;SDS011;65509;42.816;74.648;2024-03-08T04:50:17;58.38;;;8.93;;
76617;SDS011;65509;42.816;74.648;2024-03-08T04:52:43;41.22;;;6.15;;
76617;SDS011;65509;42.816;74.648;2024-03-08T04:55:09;45.92;;;6.22;;
76617;SDS011;65509;42.816;74.648;2024-03-08T04:57:34;41.15;;;6.50;;
76617;SDS011;65509;42.816;74.648;2024-03-08T05:00:00;37.45;;;6.63;;
76617;SDS011;65509;42.816;74.648;2024-03-08T05:02:25;37.72;;;7.20;;
76617;SDS011;65509;42.816;74.648;2024-03-08T05:04:51;48.00;;;7.07;;
76617;SDS011;65509;42.816;74.648;2024-03-08T05:07:19;61.03;;;7.65;;
76617;SDS011;65509;42.816;74.648;2024-03-08T05:09:45;47.70;;;9.55;;
76617;SDS011;65509;42.816;74.648;2024-03-08T05:12:16;77.05;;;12.30;;
76617;SDS011;65509;42.816;74.648;2024-03-08T05:14:42;47.88;;;11.70;;
76617;SDS011;65509;42.816;74.648;2024-03-08T05:17:07;48.15;;;13.27;;
76617;SDS011;65509;42.816;74.648;2024-03-08T05:19:32;46.80;;;12.88;;
76617;SDS011;65509;42.816;74.648;2024-03-08T05:22:16;36.70;;;11.00;;
76617;SDS011;65509;42.816;74.648;2024-03-08T05:24:42;35.17;;;10.43;;
76617;SDS011;65509;42.816;74.648;2024-03-08T05:27:08;44.25;;;10.55;;
76617;SDS011;65509;42.816;74.648;2024-03-08T05:29:33;41.03;;;9.63;;
76617;SDS011;65509;42.816;74.648;2024-03-08T05:31:59;42.00;;;9.07;;
76617;SDS011;65509;42.816;74.648;2024-03-08T05:34:24;32.83;;;8.48;;
76617;SDS011;65509;42.816;74.648;2024-03-08T05:36:51;48.47;;;9.52;;
76617;SDS011;65509;42.816;74.648;2024-03-08T05:39:16;60.28;;;9.65;;
76617;SDS011;65509;42.816;74.648;2024-03-08T05:41:42;31.15;;;9.65;;
76617;SDS011;65509;42.816;74.648;2024-03-08T05:44:08;32.63;;;11.85;;
76617;SDS011;65509;42.816;74.648;2024-03-08T05:46:34;47.40;;;11.63;;
76617;SDS011;65509;42.816;74.648;2024-03-08T05:49:02;46.45;;;13.25;;
76617;SDS011;65509;42.816;74.648;2024-03-08T05:51:34;47.63;;;12.10;;
76617;SDS011;65509;42.816;74.648;2024-03-08T05:54:02;33.80;;;9.48;;
76617;SDS011;65509;42.816;74.648;2024-03-08T05:56:32;47.13;;;9.27;;
76617;SDS011;65509;42.816;74.648;2024-03-08T05:58:57;36.22;;;8.20;;
76617;SDS011;65509;42.816;74.648;2024-03-08T06:01:25;51.38;;;8.68;;
76617;SDS011;65509;42.816;74.648;2024-03-08T06:03:52;55.72;;;8.15;;
76617;SDS011;65509;42.816;74.648;2024-03-08T06:06:20;77.03;;;9.60;;
76617;SDS011;65509;42.816;74.648;2024-03-08T06:11:48;37.72;;;7.18;;
76617;SDS011;65509;42.816;74.648;2024-03-08T06:14:13;56.42;;;8.10;;
76617;SDS011;65509;42.816;74.648;2024-03-08T06:16:41;39.70;;;8.13;;
76617;SDS011;65509;42.816;74.648;2024-03-08T06:19:07;57.83;;;9.30;;
76617;SDS011;65509;42.816;74.648;2024-03-08T06:21:33;40.25;;;7.97;;
76617;SDS011;65509;42.816;74.648;2024-03-08T06:23:58;52.33;;;7.93;;
76617;SDS011;65509;42.816;74.648;2024-03-08T06:26:24;43.85;;;8.02;;
76617;SDS011;65509;42.816;74.648;2024-03-08T06:28:50;72.90;;;8.43;;
76617;SDS011;65509;42.816;74.648;2024-03-08T06:31:36;62.90;;;7.72;;
76617;SDS011;65509;42.816;74.648;2024-03-08T06:36:56;39.95;;;7.43;;
76617;SDS011;65509;42.816;74.648;2024-03-08T06:39:30;36.55;;;7.30;;
76617;SDS011;65509;42.816;74.648;2024-03-08T06:41:57;47.97;;;8.10;;
76617;SDS011;65509;42.816;74.648;2024-03-08T06:44:22;84.95;;;9.55;;
76617;SDS011;65509;42.816;74.648;2024-03-08T06:46:48;61.47;;;8.82;;
76617;SDS011;65509;42.816;74.648;2024-03-08T06:49:13;72.07;;;10.40;;
76617;SDS011;65509;42.816;74.648;2024-03-08T06:51:40;74.63;;;10.32;;
76617;SDS011;65509;42.816;74.648;2024-03-08T06:54:06;70.28;;;9.75;;
76617;SDS011;65509;42.816;74.648;2024-03-08T06:56:34;55.65;;;9.70;;
76617;SDS011;65509;42.816;74.648;2024-03-08T06:58:59;54.05;;;8.82;;
76617;SDS011;65509;42.816;74.648;2024-03-08T07:01:25;65.85;;;9.65;;
76617;SDS011;65509;42.816;74.648;2024-03-08T07:03:50;58.13;;;9.27;;
76617;SDS011;65509;42.816;74.648;2024-03-08T07:06:17;67.65;;;9.85;;
76617;SDS011;65509;42.816;74.648;2024-03-08T07:08:44;56.70;;;8.32;;
76617;SDS011;65509;42.816;74.648;2024-03-08T07:11:11;127.82;;;11.05;;
76617;SDS011;65509;42.816;74.648;2024-03-08T07:13:37;52.78;;;8.38;;
76617;SDS011;65509;42.816;74.648;2024-03-08T07:16:04;49.55;;;7.70;;
76617;SDS011;65509;42.816;74.648;2024-03-08T07:18:29;84.22;;;10.00;;
76617;SDS011;65509;42.816;74.648;2024-03-08T07:20:55;50.78;;;7.68;;
76617;SDS011;65509;42.816;74.648;2024-03-08T07:23:20;75.45;;;9.52;;
76617;SDS011;65509;42.816;74.648;2024-03-08T07:26:06;77.57;;;9.57;;
76617;SDS011;65509;42.816;74.648;2024-03-08T07:28:31;61.65;;;8.77;;
76617;SDS011;65509;42.816;74.648;2024-03-08T07:30:57;53.13;;;8.90;;
76617;SDS011;65509;42.816;74.648;2024-03-08T07:33:48;76.40;;;10.10;;
76617;SDS011;65509;42.816;74.648;2024-03-08T07:36:15;50.85;;;8.88;;
76617;SDS011;65509;42.816;74.648;2024-03-08T07:38:41;37.97;;;7.65;;
76617;SDS011;65509;42.816;74.648;2024-03-08T07:41:06;63.85;;;8.70;;
76617;SDS011;65509;42.816;74.648;2024-03-08T07:43:32;65.63;;;8.65;;
76617;SDS011;65509;42.816;74.648;2024-03-08T07:45:58;60.90;;;8.88;;
76617;SDS011;65509;42.816;74.648;2024-03-08T07:48:23;115.28;;;10.27;;
76617;SDS011;65509;42.816;74.648;2024-03-08T07:50:48;48.90;;;7.40;;
76617;SDS011;65509;42.816;74.648;2024-03-08T07:53:15;63.03;;;8.25;;
76617;SDS011;65509;42.816;74.648;2024-03-08T07:55:40;49.78;;;8.77;;
76617;SDS011;65509;42.816;74.648;2024-03-08T07:58:07;61.35;;;8.90;;
76617;SDS011;65509;42.816;74.648;2024-03-08T08:00:35;54.08;;;8.48;;
76617;SDS011;65509;42.816;74.648;2024-03-08T08:03:02;66.95;;;8.20;;
76617;SDS011;65509;42.816;74.648;2024-03-08T08:05:27;100.32;;;10.73;;
76617;SDS011;65509;42.816;74.648;2024-03-08T08:07:52;61.33;;;9.50;;
76617;SDS011;65509;42.816;74.648;2024-03-08T08:10:18;46.35;;;9.10;;
76617;SDS011;65509;42.816;74.648;2024-03-08T08:12:55;39.65;;;8.73;;
76617;SDS011;65509;42.816;74.648;2024-03-08T08:15:22;79.32;;;9.55;;
76617;SDS011;65509;42.816;74.648;2024-03-08T08:17:48;56.22;;;9.32;;
76617;SDS011;65509;42.816;74.648;2024-03-08T08:20:16;57.38;;;8.13;;
76617;SDS011;65509;42.816;74.648;2024-03-08T08:22:43;52.28;;;7.45;;
76617;SDS011;65509;42.816;74.648;2024-03-08T08:25:09;72.32;;;8.55;;
76617;SDS011;65509;42.816;74.648;2024-03-08T08:27:38;56.00;;;8.25;;
76617;SDS011;65509;42.816;74.648;2024-03-08T08:30:05;43.55;;;8.25;;
76617;SDS011;65509;42.816;74.648;2024-03-08T08:32:33;73.82;;;8.40;;
76617;SDS011;65509;42.816;74.648;2024-03-08T08:34:59;55.15;;;7.95;;
76617;SDS011;65509;42.816;74.648;2024-03-08T08:37:24;67.28;;;9.70;;
76617;SDS011;65509;42.816;74.648;2024-03-08T08:39:51;58.88;;;8.80;;
76617;SDS011;65509;42.816;74.648;2024-03-08T08:42:17;43.67;;;8.05;;
76617;SDS011;65509;42.816;74.648;2024-03-08T08:44:43;36.97;;;7.80;;
76617;SDS011;65509;42.816;74.648;2024-03-08T08:47:08;76.65;;;8.75;;
76617;SDS011;65509;42.816;74.648;2024-03-08T08:49:34;96.38;;;9.80;;
76617;SDS011;65509;42.816;74.648;2024-03-08T08:52:00;75.70;;;8.73;;
76617;SDS011;65509;42.816;74.648;2024-03-08T08:54:26;80.68;;;8.50;;
76617;SDS011;65509;42.816;74.648;2024-03-08T08:56:52;72.05;;;8.65;;
76617;SDS011;65509;42.816;74.648;2024-03-08T08:59:18;43.17;;;6.68;;
76617;SDS011;65509;42.816;74.648;2024-03-08T09:01:45;70.15;;;5.88;;
76617;SDS011;65509;42.816;74.648;2024-03-08T09:04:12;74.47;;;6.57;;
76617;SDS011;65509;42.816;74.648;2024-03-08T09:06:37;56.33;;;6.88;;
76617;SDS011;65509;42.816;74.648;2024-03-08T09:09:03;60.60;;;7.57;;
76617;SDS011;65509;42.816;74.648;2024-03-08T09:11:30;62.47;;;7.85;;
76617;SDS011;65509;42.816;74.648;2024-03-08T09:13:55;48.35;;;6.63;;
76617;SDS011;65509;42.816;74.648;2024-03-08T09:16:20;58.85;;;6.90;;
76617;SDS011;65509;42.816;74.648;2024-03-08T09:18:46;55.75;;;7.13;;
76617;SDS011;65509;42.816;74.648;2024-03-08T09:21:13;62.08;;;7.28;;
76617;SDS011;65509;42.816;74.648;2024-03-08T09:23:38;54.25;;;7.50;;
76617;SDS011;65509;42.816;74.648;2024-03-08T09:26:05;49.72;;;6.70;;
76617;SDS011;65509;42.816;74.648;2024-03-08T09:28:34;50.65;;;7.07;;
76617;SDS011;65509;42.816;74.648;2024-03-08T09:31:00;51.80;;;7.07;;
76617;SDS011;65509;42.816;74.648;2024-03-08T09:33:26;61.22;;;7.30;;
76617;SDS011;65509;42.816;74.648;2024-03-08T09:35:53;68.40;;;8.95;;
76617;SDS011;65509;42.816;74.648;2024-03-08T09:38:19;59.22;;;7.88;;
76617;SDS011;65509;42.816;74.648;2024-03-08T09:40:45;51.17;;;7.60;;
76617;SDS011;65509;42.816;74.648;2024-03-08T09:43:11;55.63;;;7.50;;
76617;SDS011;65509;42.816;74.648;2024-03-08T09:45:39;71.75;;;7.80;;
76617;SDS011;65509;42.816;74.648;2024-03-08T09:48:12;56.80;;;7.28;;
76617;SDS011;65509;42.816;74.648;2024-03-08T09:50:41;102.47;;;9.35;;
76617;SDS011;65509;42.816;74.648;2024-03-08T09:53:07;48.17;;;7.47;;
76617;SDS011;65509;42.816;74.648;2024-03-08T09:55:37;98.13;;;8.70;;
76617;SDS011;65509;42.816;74.648;2024-03-08T09:58:04;37.47;;;6.50;;
76617;SDS011;65509;42.816;74.648;2024-03-08T10:00:49;48.08;;;7.57;;
76617;SDS011;65509;42.816;74.648;2024-03-08T10:03:14;41.42;;;6.75;;
76617;SDS011;65509;42.816;74.648;2024-03-08T10:05:43;56.38;;;7.40;;
76617;SDS011;65509;42.816;74.648;2024-03-08T10:08:09;39.70;;;6.38;;
76617;SDS011;65509;42.816;74.648;2024-03-08T10:10:36;54.63;;;6.60;;
76617;SDS011;65509;42.816;74.648;2024-03-08T10:13:05;39.08;;;6.13;;
76617;SDS011;65509;42.816;74.648;2024-03-08T10:15:30;78.43;;;8.13;;
76617;SDS011;65509;42.816;74.648;2024-03-08T10:17:58;46.05;;;7.32;;
76617;SDS011;65509;42.816;74.648;2024-03-08T10:20:24;60.58;;;8.18;;
76617;SDS011;65509;42.816;74.648;2024-03-08T10:22:49;60.85;;;8.35;;
76617;SDS011;65509;42.816;74.648;2024-03-08T10:25:16;39.67;;;6.70;;
76617;SDS011;65509;42.816;74.648;2024-03-08T10:27:44;64.53;;;7.63;;
76617;SDS011;65509;42.816;74.648;2024-03-08T10:30:11;47.28;;;6.97;;
76617;SDS011;65509;42.816;74.648;2024-03-08T10:32:38;83.47;;;8.32;;
76617;SDS011;65509;42.816;74.648;2024-03-08T10:35:04;61.20;;;9.32;;
76617;SDS011;65509;42.816;74.648;2024-03-08T10:37:29;79.88;;;10.05;;
76617;SDS011;65509;42.816;74.648;2024-03-08T10:40:04;86.47;;;11.07;;
76617;SDS011;65509;42.816;74.648;2024-03-08T10:42:38;77.80;;;11.35;;
76617;SDS011;65509;42.816;74.648;2024-03-08T10:45:05;67.38;;;13.25;;
76617;SDS011;65509;42.816;74.648;2024-03-08T10:47:33;125.97;;;16.10;;
76617;SDS011;65509;42.816;74.648;2024-03-08T10:50:19;112.95;;;16.10;;
76617;SDS011;65509;42.816;74.648;2024-03-08T10:52:50;94.40;;;15.95;;
76617;SDS011;65509;42.816;74.648;2024-03-08T10:55:17;77.20;;;12.88;;
76617;SDS011;65509;42.816;74.648;2024-03-08T10:57:42;102.40;;;13.82;;
76617;SDS011;65509;42.816;74.648;2024-03-08T11:00:08;71.18;;;13.90;;
76617;SDS011;65509;42.816;74.648;2024-03-08T11:02:38;107.60;;;15.70;;
76617;SDS011;65509;42.816;74.648;2024-03-08T11:05:04;75.15;;;14.13;;
76617;SDS011;65509;42.816;74.648;2024-03-08T11:07:33;98.28;;;15.50;;
76617;SDS011;65509;42.816;74.648;2024-03-08T11:10:03;67.53;;;14.15;;
76617;SDS011;65509;42.816;74.648;2024-03-08T11:12:37;84.38;;;14.60;;
76617;SDS011;65509;42.816;74.648;2024-03-08T11:15:12;71.93;;;15.15;;
76617;SDS011;65509;42.816;74.648;2024-03-08T11:20:14;65.30;;;17.20;;
76617;SDS011;65509;42.816;74.648;2024-03-08T11:23:03;83.13;;;17.58;;
76617;SDS011;65509;42.816;74.648;2024-03-08T11:33:13;77.88;;;15.18;;
76617;SDS011;65509;42.816;74.648;2024-03-08T11:35:38;61.85;;;15.80;;
76617;SDS011;65509;42.816;74.648;2024-03-08T11:38:04;67.60;;;13.02;;
76617;SDS011;65509;42.816;74.648;2024-03-08T11:40:29;82.95;;;15.75;;
76617;SDS011;65509;42.816;74.648;2024-03-08T11:42:58;63.33;;;14.02;;
76617;SDS011;65509;42.816;74.648;2024-03-08T11:45:24;64.38;;;13.73;;
76617;SDS011;65509;42.816;74.648;2024-03-08T11:47:50;51.20;;;12.50;;
76617;SDS011;65509;42.816;74.648;2024-03-08T11:50:15;42.33;;;12.90;;
76617;SDS011;65509;42.816;74.648;2024-03-08T11:52:41;83.20;;;14.90;;
76617;SDS011;65509;42.816;74.648;2024-03-08T11:55:08;37.67;;;12.93;;
76617;SDS011;65509;42.816;74.648;2024-03-08T11:57:33;91.43;;;14.30;;
76617;SDS011;65509;42.816;74.648;2024-03-08T11:59:59;74.13;;;14.05;;
76617;SDS011;65509;42.816;74.648;2024-03-08T12:02:59;47.38;;;12.23;;
76617;SDS011;65509;42.816;74.648;2024-03-08T12:05:25;45.33;;;11.95;;
76617;SDS011;65509;42.816;74.648;2024-03-08T12:07:58;37.92;;;10.68;;
76617;SDS011;65509;42.816;74.648;2024-03-08T12:10:24;49.65;;;11.48;;
76617;SDS011;65509;42.816;74.648;2024-03-08T12:12:52;57.58;;;12.20;;
76617;SDS011;65509;42.816;74.648;2024-03-08T12:15:18;50.13;;;14.32;;
76617;SDS011;65509;42.816;74.648;2024-03-08T12:17:50;67.50;;;14.07;;
76617;SDS011;65509;42.816;74.648;2024-03-08T12:20:25;43.65;;;13.70;;
76617;SDS011;65509;42.816;74.648;2024-03-08T12:22:54;47.47;;;13.68;;
76617;SDS011;65509;42.816;74.648;2024-03-08T12:25:25;43.75;;;13.43;;
76617;SDS011;65509;42.816;74.648;2024-03-08T12:27:51;31.55;;;13.02;;
76617;SDS011;65509;42.816;74.648;2024-03-08T12:30:24;38.47;;;12.95;;
76617;SDS011;65509;42.816;74.648;2024-03-08T12:32:57;46.45;;;13.30;;
76617;SDS011;65509;42.816;74.648;2024-03-08T12:35:23;51.75;;;14.07;;
76617;SDS011;65509;42.816;74.648;2024-03-08T12:37:53;48.30;;;14.85;;
76617;SDS011;65509;42.816;74.648;2024-03-08T12:40:19;67.00;;;15.98;;
76617;SDS011;65509;42.816;74.648;2024-03-08T12:42:45;61.63;;;16.02;;
76617;SDS011;65509;42.816;74.648;2024-03-08T12:45:13;85.93;;;22.13;;
76617;SDS011;65509;42.816;74.648;2024-03-08T12:47:38;82.53;;;22.63;;
76617;SDS011;65509;42.816;74.648;2024-03-08T12:50:03;66.70;;;21.73;;
76617;SDS011;65509;42.816;74.648;2024-03-08T12:52:29;70.25;;;21.05;;
76617;SDS011;65509;42.816;74.648;2024-03-08T12:54:55;65.25;;;25.48;;
76617;SDS011;65509;42.816;74.648;2024-03-08T12:57:20;67.95;;;27.05;;
76617;SDS011;65509;42.816;74.648;2024-03-08T12:59:46;98.30;;;30.85;;
76617;SDS011;65509;42.816;74.648;2024-03-08T13:02:11;84.22;;;32.65;;
76617;SDS011;65509;42.816;74.648;2024-03-08T13:04:37;84.13;;;36.70;;
76617;SDS011;65509;42.816;74.648;2024-03-08T13:07:02;88.38;;;33.78;;
76617;SDS011;65509;42.816;74.648;2024-03-08T13:09:28;65.93;;;30.65;;
76617;SDS011;65509;42.816;74.648;2024-03-08T13:11:54;103.00;;;29.08;;
76617;SDS011;65509;42.816;74.648;2024-03-08T13:14:20;71.90;;;27.83;;
76617;SDS011;65509;42.816;74.648;2024-03-08T13:16:45;113.82;;;26.67;;
76617;SDS011;65509;42.816;74.648;2024-03-08T13:19:14;79.43;;;25.20;;
76617;SDS011;65509;42.816;74.648;2024-03-08T13:21:39;97.15;;;21.83;;
76617;SDS011;65509;42.816;74.648;2024-03-08T13:24:05;55.20;;;20.92;;
76617;SDS011;65509;42.816;74.648;2024-03-08T13:26:30;78.50;;;27.80;;
76617;SDS011;65509;42.816;74.648;2024-03-08T13:28:58;84.18;;;33.08;;
76617;SDS011;65509;42.816;74.648;2024-03-08T13:31:24;70.28;;;32.28;;
76617;SDS011;65509;42.816;74.648;2024-03-08T13:33:49;97.45;;;30.02;;
76617;SDS011;65509;42.816;74.648;2024-03-08T13:36:16;60.80;;;27.35;;
76617;SDS011;65509;42.816;74.648;2024-03-08T13:38:47;80.68;;;24.55;;
76617;SDS011;65509;42.816;74.648;2024-03-08T13:41:16;70.22;;;23.75;;
76617;SDS011;65509;42.816;74.648;2024-03-08T13:43:51;89.68;;;24.38;;
76617;SDS011;65509;42.816;74.648;2024-03-08T13:46:17;70.85;;;24.13;;
76617;SDS011;65509;42.816;74.648;2024-03-08T13:48:42;95.15;;;22.70;;
76617;SDS011;65509;42.816;74.648;2024-03-08T13:51:08;77.20;;;22.30;;
76617;SDS011;65509;42.816;74.648;2024-03-08T13:53:36;79.15;;;21.70;;
76617;SDS011;65509;42.816;74.648;2024-03-08T13:56:01;67.38;;;20.80;;
76617;SDS011;65509;42.816;74.648;2024-03-08T13:58:27;50.65;;;19.20;;
76617;SDS011;65509;42.816;74.648;2024-03-08T14:00:52;62.55;;;19.70;;
76617;SDS011;65509;42.816;74.648;2024-03-08T14:03:18;48.70;;;19.40;;
76617;SDS011;65509;42.816;74.648;2024-03-08T14:05:43;89.65;;;18.63;;
76617;SDS011;65509;42.816;74.648;2024-03-08T14:08:10;66.97;;;17.27;;
76617;SDS011;65509;42.816;74.648;2024-03-08T14:10:37;76.38;;;25.13;;
76617;SDS011;65509;42.816;74.648;2024-03-08T14:13:02;73.50;;;30.90;;
76617;SDS011;65509;42.816;74.648;2024-03-08T14:15:33;77.95;;;31.73;;
76617;SDS011;65509;42.816;74.648;2024-03-08T14:17:59;90.43;;;34.03;;
76617;SDS011;65509;42.816;74.648;2024-03-08T14:20:25;83.63;;;32.53;;
76617;SDS011;65509;42.816;74.648;2024-03-08T14:22:54;116.10;;;31.08;;
76617;SDS011;65509;42.816;74.648;2024-03-08T14:25:25;74.82;;;29.80;;
76617;SDS011;65509;42.816;74.648;2024-03-08T14:27:51;84.63;;;31.40;;
76617;SDS011;65509;42.816;74.648;2024-03-08T14:30:23;67.82;;;31.35;;
76617;SDS011;65509;42.816;74.648;2024-03-08T14:32:59;99.10;;;41.65;;
76617;SDS011;65509;42.816;74.648;2024-03-08T14:35:25;107.60;;;42.88;;